Huvudsida
METAR-TAF:

METAR-TAF

Flygplatser :

Brescia Ghedi, Italien

latitud: 45-25N, longitud: 010-17E, höjd: 102 m

Aktuellt väderrapport

Denna rapport gjordes för 1 timme och 21 minuter sedan, klockan 12:55 UTC
Vind 4 kt från väst
Temperatur 20°C
Fuktighet 40%
Tryck 1021 hPa
Sikt 10 km eller mer
Inga moln under 1 500 m eller inga cumulonimbus

METAR: LIPL 091255Z 27004KT CAVOK 20/06 Q1021 RMK SKC VIS MIN 9999 WIND THR31 23006KT WIND THR13 24004KT BLU

Tid: 16:16 (14:16 UTC)

Väderprognos

Denna rapport gjordes för 3 timmar och 16 minuter sedan, klockan 11:00 UTC
Prognos gäller från 09 kl. 12 UTC till 09 kl. 21 UTC
Vind 3 kt varierande vindriktning
Sikt 10 km eller mer
Inga moln under 1 500 m eller inga cumulonimbus

TAF: LIPL 091100Z 0912/0921 VRB03KT CAVOK

Aktuella väderrapporter och prognoser från 4000 flygplatser (METAR- och TAF-rapporter).

De tillgängliga stationerna syns som gula och röda prickar på kartan.

För musen över prickarna för att se namnen på stationerna.

Klicka sedan för att få väderrapporter och prognoser.

För att ändra kartan: Klicka på de gröna knapparna med ett svart kors på för att zooma in; den gröna knappen med ett streck på för att zooma ut; eller på de gröna pilarna för angränsande kartor.


METAR-TAF: